createdAt,value
2023-04-20T00:00:48.295Z,13.98
2023-04-20T00:03:15.137Z,17.75
2023-04-20T00:05:41.920Z,16.58
2023-04-20T00:08:08.506Z,14.30
2023-04-20T00:10:35.084Z,11.55
2023-04-20T00:13:01.632Z,11.27
2023-04-20T00:15:28.220Z,9.35
2023-04-20T00:17:55.019Z,10.45
2023-04-20T00:20:21.659Z,10.63
2023-04-20T00:22:48.199Z,10.23
2023-04-20T00:25:14.840Z,9.80
2023-04-20T00:27:41.592Z,10.30
2023-04-20T00:30:10.080Z,11.80
2023-04-20T00:32:36.741Z,11.70
2023-04-20T00:35:03.505Z,10.57
2023-04-20T00:37:30.197Z,7.90
2023-04-20T00:39:57.886Z,10.15
2023-04-20T00:42:24.495Z,7.03
2023-04-20T00:44:51.264Z,9.93
2023-04-20T00:47:17.924Z,11.25
2023-04-20T00:49:44.700Z,10.07
2023-04-20T00:52:11.307Z,6.55
2023-04-20T00:54:38.372Z,5.22
2023-04-20T00:57:05.420Z,6.18
2023-04-20T00:59:32.622Z,5.63
2023-04-20T01:01:59.502Z,6.70
2023-04-20T01:04:26.505Z,6.35
2023-04-20T01:06:53.168Z,6.82
2023-04-20T01:09:19.977Z,11.07
2023-04-20T01:11:46.701Z,7.20
2023-04-20T01:14:13.357Z,9.23
2023-04-20T01:16:39.943Z,7.85
2023-04-20T01:19:06.518Z,7.22
2023-04-20T01:21:33.113Z,6.88
2023-04-20T01:23:59.772Z,6.65
2023-04-20T01:26:27.050Z,6.70
2023-04-20T01:28:53.754Z,8.07
2023-04-20T01:31:20.387Z,10.40
2023-04-20T01:33:47.008Z,8.18
2023-04-20T01:36:14.166Z,5.97
2023-04-20T01:38:41.643Z,7.88
2023-04-20T01:41:09.504Z,9.57
2023-04-20T01:43:37.658Z,10.25
2023-04-20T01:46:05.155Z,8.95
2023-04-20T01:48:32.473Z,6.25
2023-04-20T01:50:59.097Z,12.07
2023-04-20T01:53:25.678Z,11.20
2023-04-20T01:55:52.228Z,10.57
2023-04-20T01:58:18.768Z,9.13
2023-04-20T02:00:45.511Z,8.52
2023-04-20T02:03:12.437Z,7.05
2023-04-20T02:05:39.198Z,7.35
2023-04-20T02:08:05.959Z,6.70
2023-04-20T02:10:32.601Z,10.27
2023-04-20T02:12:59.242Z,11.23
2023-04-20T02:15:25.928Z,10.07
2023-04-20T02:17:52.893Z,9.27
2023-04-20T02:20:20.111Z,8.30
2023-04-20T02:22:46.862Z,9.45
2023-04-20T02:25:14.418Z,8.02
2023-04-20T02:27:41.497Z,10.40
2023-04-20T02:30:08.649Z,8.85
2023-04-20T02:32:35.480Z,12.10
2023-04-20T02:35:04.088Z,12.18
2023-04-20T02:37:30.909Z,10.00
2023-04-20T02:39:57.492Z,12.75
2023-04-20T02:42:24.173Z,14.75
2023-04-20T02:44:52.705Z,12.05
2023-04-20T02:47:19.638Z,7.53
2023-04-20T02:49:47.368Z,9.68
2023-04-20T02:52:14.261Z,10.48
2023-04-20T02:54:40.932Z,9.80
2023-04-20T02:57:07.537Z,9.23
2023-04-20T02:59:34.221Z,14.10
2023-04-20T03:02:00.851Z,11.20
2023-04-20T03:04:27.961Z,9.18
2023-04-20T03:06:54.882Z,9.73
2023-04-20T03:09:22.060Z,10.88
2023-04-20T03:11:49.550Z,11.43
2023-04-20T03:14:16.488Z,12.07
2023-04-20T03:16:43.586Z,11.52
2023-04-20T03:19:10.399Z,10.25
2023-04-20T03:21:37.140Z,10.68
2023-04-20T03:24:04.797Z,10.35
2023-04-20T03:26:31.410Z,11.95
2023-04-20T03:28:58.025Z,8.95
2023-04-20T03:31:24.749Z,9.43
2023-04-20T03:33:51.372Z,16.65
2023-04-20T03:36:17.949Z,10.38
2023-04-20T03:38:44.641Z,12.48
2023-04-20T03:41:11.194Z,12.25
2023-04-20T03:43:37.773Z,12.43
2023-04-20T03:46:04.535Z,13.77
2023-04-20T03:48:31.170Z,10.88
2023-04-20T03:50:58.917Z,10.32
2023-04-20T03:53:26.253Z,8.63
2023-04-20T03:55:52.821Z,14.88
2023-04-20T03:58:19.543Z,10.32
2023-04-20T04:00:46.288Z,11.75
2023-04-20T04:03:13.332Z,9.68
2023-04-20T04:05:41.374Z,11.75
2023-04-20T04:08:07.990Z,8.80
2023-04-20T04:10:34.598Z,9.60
2023-04-20T04:13:01.203Z,11.43
2023-04-20T04:15:27.875Z,9.68
2023-04-20T04:17:55.365Z,11.73
2023-04-20T04:20:22.059Z,10.93
2023-04-20T04:22:48.656Z,7.32
2023-04-20T04:25:15.304Z,10.05
2023-04-20T04:27:42.164Z,9.63
2023-04-20T04:30:11.006Z,11.80
2023-04-20T04:35:04.652Z,9.23
2023-04-20T04:37:31.612Z,10.00
2023-04-20T04:39:58.289Z,12.10
2023-04-20T04:42:25.116Z,9.05
2023-04-20T04:44:56.158Z,11.68
2023-04-20T04:47:23.662Z,9.82
2023-04-20T04:49:50.502Z,8.85
2023-04-20T04:52:17.154Z,9.00
2023-04-20T04:54:43.853Z,12.57
2023-04-20T04:57:10.522Z,8.93
2023-04-20T04:59:37.462Z,12.95
2023-04-20T05:02:04.173Z,6.80
2023-04-20T05:04:30.992Z,8.57
2023-04-20T05:06:57.848Z,8.35
2023-04-20T05:09:24.462Z,8.90
2023-04-20T05:11:51.174Z,7.70
2023-04-20T05:14:17.736Z,8.38
2023-04-20T05:16:44.376Z,8.57
2023-04-20T05:19:11.093Z,9.85
2023-04-20T05:21:39.276Z,9.85
2023-04-20T05:24:06.573Z,11.43
2023-04-20T05:26:33.290Z,8.55
2023-04-20T05:28:59.876Z,9.80
2023-04-20T05:31:26.560Z,7.43
2023-04-20T05:33:53.364Z,6.97
2023-04-20T05:36:20.704Z,6.20
2023-04-20T05:38:47.312Z,10.50
2023-04-20T05:41:14.072Z,11.65
2023-04-20T05:43:41.071Z,8.95
2023-04-20T05:46:07.696Z,6.85
2023-04-20T05:48:34.347Z,7.80
2023-04-20T05:51:00.928Z,8.20
2023-04-20T05:53:27.662Z,5.07
2023-04-20T05:55:54.239Z,7.57
2023-04-20T05:58:20.869Z,8.27
2023-04-20T06:00:47.773Z,8.43
2023-04-20T06:03:14.596Z,7.75
2023-04-20T06:05:41.512Z,11.13
2023-04-20T06:08:08.356Z,5.80
2023-04-20T06:10:35.206Z,9.93
2023-04-20T06:13:01.899Z,9.02
2023-04-20T06:15:28.598Z,7.18
2023-04-20T06:17:55.367Z,5.75
2023-04-20T06:20:22.122Z,8.30
2023-04-20T06:22:49.192Z,11.43
2023-04-20T06:25:16.115Z,8.50
2023-04-20T06:27:42.950Z,7.35
2023-04-20T06:30:10.265Z,5.55
2023-04-20T06:32:38.015Z,5.55
2023-04-20T06:35:06.210Z,6.22
2023-04-20T06:37:33.046Z,4.07
2023-04-20T06:40:00.203Z,5.30
2023-04-20T06:42:27.209Z,6.22
2023-04-20T06:44:53.812Z,11.05
2023-04-20T06:47:20.794Z,7.07
2023-04-20T06:49:47.506Z,9.13
2023-04-20T06:52:14.083Z,12.45
2023-04-20T06:54:40.653Z,10.75
2023-04-20T06:57:20.080Z,4.20
2023-04-20T06:59:46.685Z,4.22
2023-04-20T07:02:13.398Z,5.55
2023-04-20T07:04:40.769Z,9.07
2023-04-20T07:07:07.441Z,6.18
2023-04-20T07:09:34.322Z,7.85
2023-04-20T07:12:01.018Z,6.07
2023-04-20T07:14:27.621Z,5.03
2023-04-20T07:16:55.071Z,4.85
2023-04-20T07:19:21.827Z,6.22
2023-04-20T07:21:49.025Z,6.28
2023-04-20T07:24:15.637Z,7.35
2023-04-20T07:26:42.218Z,7.93
2023-04-20T07:29:08.781Z,8.00
2023-04-20T07:31:35.643Z,8.15
2023-04-20T07:34:05.494Z,5.15
2023-04-20T07:36:32.664Z,7.18
2023-04-20T07:38:59.222Z,7.07
2023-04-20T07:41:25.805Z,6.13
2023-04-20T07:43:52.416Z,7.88
2023-04-20T07:46:23.690Z,5.72
2023-04-20T07:48:50.376Z,5.55
2023-04-20T07:51:17.251Z,4.28
2023-04-20T07:53:44.215Z,6.75
2023-04-20T07:56:10.976Z,5.90
2023-04-20T07:58:40.718Z,6.97
2023-04-20T08:01:07.634Z,6.43
2023-04-20T08:03:35.692Z,8.93
2023-04-20T08:06:02.645Z,7.25
2023-04-20T08:08:29.729Z,5.53
2023-04-20T08:10:58.643Z,5.03
2023-04-20T08:13:25.958Z,6.85
2023-04-20T08:15:52.770Z,7.65
2023-04-20T08:18:21.195Z,7.25
2023-04-20T08:20:48.066Z,7.70
2023-04-20T08:23:14.768Z,7.22
2023-04-20T08:25:41.377Z,7.45
2023-04-20T08:28:11.864Z,5.57
2023-04-20T08:30:42.166Z,3.92
2023-04-20T08:33:08.898Z,6.43
2023-04-20T08:35:35.840Z,5.70
2023-04-20T08:38:02.541Z,3.72
2023-04-20T08:40:30.810Z,8.05
2023-04-20T08:42:59.693Z,10.57
2023-04-20T08:45:27.310Z,9.75
2023-04-20T08:47:55.150Z,7.55
2023-04-20T08:50:22.245Z,7.77
2023-04-20T08:52:48.962Z,7.47
2023-04-20T08:55:19.106Z,8.25
2023-04-20T08:57:49.066Z,4.78
2023-04-20T09:00:16.359Z,6.90
2023-04-20T09:02:51.715Z,7.43
2023-04-20T09:05:27.197Z,5.57
2023-04-20T09:08:01.356Z,4.28
2023-04-20T09:10:40.380Z,8.05
2023-04-20T09:13:07.412Z,8.18
2023-04-20T09:15:34.030Z,12.15
2023-04-20T09:18:11.792Z,7.90
2023-04-20T09:20:38.355Z,7.60
2023-04-20T09:23:12.377Z,7.45
2023-04-20T09:25:40.892Z,9.30
2023-04-20T09:28:07.638Z,8.27
2023-04-20T09:30:45.383Z,7.82
2023-04-20T09:33:14.300Z,7.28
2023-04-20T09:35:45.501Z,5.82
2023-04-20T09:38:16.571Z,6.95
2023-04-20T09:40:43.554Z,7.10
2023-04-20T09:43:18.985Z,7.60
2023-04-20T09:45:46.078Z,7.57
2023-04-20T09:48:17.019Z,5.93
2023-04-20T09:50:49.649Z,8.02
2023-04-20T09:53:18.967Z,5.57
2023-04-20T09:55:48.461Z,9.57
2023-04-20T09:58:17.736Z,9.95
2023-04-20T10:00:44.416Z,9.85
2023-04-20T10:03:12.720Z,8.25
2023-04-20T10:05:39.966Z,9.00
2023-04-20T10:08:07.133Z,7.22
2023-04-20T10:10:48.137Z,7.75
2023-04-20T10:13:16.098Z,13.13
2023-04-20T10:15:43.067Z,11.13
2023-04-20T10:18:23.979Z,8.07
2023-04-20T10:20:51.820Z,9.60
2023-04-20T10:23:20.031Z,8.98
2023-04-20T10:25:58.420Z,7.60
2023-04-20T10:28:25.465Z,11.05
2023-04-20T10:30:53.449Z,9.15
2023-04-20T10:33:20.139Z,9.10
2023-04-20T10:35:48.138Z,8.80
2023-04-20T10:38:16.267Z,10.57
2023-04-20T10:40:42.889Z,9.05
2023-04-20T10:43:21.144Z,13.27
2023-04-20T10:45:48.529Z,15.38
2023-04-20T10:48:17.875Z,7.53
2023-04-20T10:50:44.896Z,9.35
2023-04-20T10:53:21.826Z,10.55
2023-04-20T10:55:58.518Z,9.93
2023-04-20T10:58:25.640Z,11.02
2023-04-20T11:01:03.929Z,12.52
2023-04-20T11:03:32.634Z,10.70
2023-04-20T11:08:37.715Z,10.88
2023-04-20T11:11:04.394Z,9.10
2023-04-20T11:13:32.890Z,12.32
2023-04-20T11:16:00.233Z,11.43
2023-04-20T11:18:26.877Z,10.10
2023-04-20T11:20:56.911Z,10.15
2023-04-20T11:23:27.393Z,10.13
2023-04-20T11:25:56.011Z,11.13
2023-04-20T11:28:22.855Z,15.27
2023-04-20T11:30:50.860Z,19.60
2023-04-20T11:33:31.101Z,16.33
2023-04-20T11:35:58.923Z,10.52
2023-04-20T11:38:33.231Z,12.57
2023-04-20T11:41:08.123Z,12.52
2023-04-20T11:43:36.130Z,14.60
2023-04-20T11:46:03.350Z,15.00
2023-04-20T11:48:32.600Z,12.07
2023-04-20T11:50:59.236Z,12.05
2023-04-20T11:53:25.863Z,8.65
2023-04-20T11:55:52.528Z,12.32
2023-04-20T11:58:19.175Z,16.27
2023-04-20T12:00:45.851Z,14.23
2023-04-20T12:03:12.657Z,13.82
2023-04-20T12:05:39.378Z,12.55
2023-04-20T12:08:08.358Z,10.82
2023-04-20T12:10:35.122Z,11.70
2023-04-20T12:13:01.726Z,15.70
2023-04-20T12:15:28.396Z,10.90
2023-04-20T12:17:55.104Z,14.70
2023-04-20T12:20:21.891Z,17.30
2023-04-20T12:22:48.637Z,11.90
2023-04-20T12:25:15.376Z,10.32
2023-04-20T12:27:42.087Z,15.18
2023-04-20T12:30:09.422Z,10.73
2023-04-20T12:32:36.208Z,10.05
2023-04-20T12:35:02.905Z,12.10
2023-04-20T12:37:29.508Z,10.98
2023-04-20T12:39:56.098Z,10.38
2023-04-20T12:42:22.672Z,12.07
2023-04-20T12:44:49.274Z,10.82
2023-04-20T12:47:15.967Z,17.42
2023-04-20T12:49:42.606Z,14.07
2023-04-20T12:52:09.236Z,9.65
2023-04-20T12:54:35.814Z,11.32
2023-04-20T12:57:03.511Z,8.45
2023-04-20T12:59:30.160Z,8.30
2023-04-20T13:01:56.830Z,11.10
2023-04-20T13:04:24.137Z,12.52
2023-04-20T13:06:51.667Z,18.20
2023-04-20T13:09:18.316Z,11.00
2023-04-20T13:11:44.984Z,10.35
2023-04-20T13:14:11.602Z,11.55
2023-04-20T13:16:38.402Z,12.50
2023-04-20T13:19:05.348Z,6.43
2023-04-20T13:21:33.264Z,7.93
2023-04-20T13:23:59.988Z,9.40
2023-04-20T13:26:26.712Z,12.48
2023-04-20T13:28:54.197Z,17.25
2023-04-20T13:31:21.007Z,11.25
2023-04-20T13:33:47.774Z,8.77
2023-04-20T13:36:14.459Z,8.10
2023-04-20T13:38:41.158Z,15.73
2023-04-20T13:41:07.758Z,12.50
2023-04-20T13:43:34.449Z,14.00
2023-04-20T13:46:01.096Z,8.43
2023-04-20T13:48:27.717Z,13.77
2023-04-20T13:50:54.294Z,15.85
2023-04-20T13:53:21.980Z,14.90
2023-04-20T13:55:48.621Z,14.20
2023-04-20T13:58:15.399Z,9.63
2023-04-20T14:00:42.053Z,8.07
2023-04-20T14:03:12.131Z,10.18
2023-04-20T14:05:38.950Z,10.23
2023-04-20T14:08:06.991Z,24.42
2023-04-20T14:10:33.923Z,18.08
2023-04-20T14:13:01.309Z,10.75
2023-04-20T14:15:28.322Z,11.50
2023-04-20T14:17:56.041Z,8.73
2023-04-20T14:20:22.778Z,13.45
2023-04-20T14:22:49.420Z,10.73
2023-04-20T14:25:16.038Z,11.63
2023-04-20T14:27:42.595Z,10.25
2023-04-20T14:30:10.013Z,12.20
2023-04-20T14:32:36.800Z,14.13
2023-04-20T14:35:05.569Z,8.77
2023-04-20T14:37:33.119Z,7.80
2023-04-20T14:39:59.794Z,10.73
2023-04-20T14:42:26.401Z,8.93
2023-04-20T14:44:53.093Z,7.95
2023-04-20T14:47:19.892Z,8.68
2023-04-20T14:49:46.473Z,11.18
2023-04-20T14:52:13.027Z,12.85
2023-04-20T14:54:39.623Z,11.85
2023-04-20T14:57:06.317Z,8.60
2023-04-20T14:59:33.944Z,12.73
2023-04-20T15:02:03.345Z,7.90
2023-04-20T15:04:30.780Z,11.60
2023-04-20T15:06:57.699Z,10.73
2023-04-20T15:09:24.450Z,13.85
2023-04-20T15:11:51.076Z,11.05
2023-04-20T15:14:17.906Z,21.05
2023-04-20T15:16:44.780Z,17.13
2023-04-20T15:19:11.528Z,10.23
2023-04-20T15:21:38.280Z,13.93
2023-04-20T15:24:05.406Z,11.50
2023-04-20T15:26:32.049Z,18.80
2023-04-20T15:28:58.692Z,13.35
2023-04-20T15:31:25.817Z,13.15
2023-04-20T15:33:52.494Z,13.40
2023-04-20T15:36:20.500Z,10.02
2023-04-20T15:38:47.091Z,13.63
2023-04-20T15:41:13.762Z,7.78
2023-04-20T15:43:40.468Z,13.20
2023-04-20T15:46:07.166Z,11.60
2023-04-20T15:48:33.783Z,15.05
2023-04-20T15:51:00.418Z,11.27
2023-04-20T15:53:27.376Z,10.70
2023-04-20T15:55:54.061Z,9.95
2023-04-20T15:58:20.892Z,5.93
2023-04-20T16:00:47.607Z,11.50
2023-04-20T16:03:14.568Z,7.53
2023-04-20T16:05:41.204Z,8.98
2023-04-20T16:08:07.834Z,10.55
2023-04-20T16:10:34.490Z,10.75
2023-04-20T16:13:01.225Z,8.45
2023-04-20T16:15:28.043Z,7.93
2023-04-20T16:17:55.834Z,7.22
2023-04-20T16:20:22.607Z,9.40
2023-04-20T16:22:49.302Z,6.30
2023-04-20T16:25:22.609Z,7.63
2023-04-20T16:27:51.455Z,5.00
2023-04-20T16:30:18.111Z,5.43
2023-04-20T16:32:47.129Z,8.02
2023-04-20T16:35:13.906Z,7.65
2023-04-20T16:37:40.554Z,4.88
2023-04-20T16:40:09.854Z,6.72
2023-04-20T16:42:36.466Z,4.80
2023-04-20T16:45:04.313Z,9.02
2023-04-20T16:47:30.931Z,5.18
2023-04-20T16:49:57.977Z,9.02
2023-04-20T16:52:24.671Z,7.65
2023-04-20T16:54:51.556Z,9.73
2023-04-20T16:57:18.151Z,9.73
2023-04-20T16:59:45.963Z,8.05
2023-04-20T17:02:12.750Z,7.38
2023-04-20T17:04:39.537Z,8.98
2023-04-20T17:07:06.226Z,7.60
2023-04-20T17:09:33.068Z,4.38
2023-04-20T17:11:59.764Z,7.53
2023-04-20T17:14:26.429Z,5.30
2023-04-20T17:16:54.322Z,11.32
2023-04-20T17:19:21.010Z,6.07
2023-04-20T17:21:47.602Z,7.43
2023-04-20T17:24:14.198Z,5.93
2023-04-20T17:26:40.816Z,6.03
2023-04-20T17:29:07.449Z,5.72
2023-04-20T17:31:34.265Z,7.03
2023-04-20T17:34:00.876Z,6.78
2023-04-20T17:36:28.213Z,8.23
2023-04-20T17:38:55.017Z,8.27
2023-04-20T17:41:21.599Z,6.25
2023-04-20T17:43:50.887Z,6.95
2023-04-20T17:46:17.593Z,7.65
2023-04-20T17:48:44.334Z,7.22
2023-04-20T17:51:13.633Z,9.77
2023-04-20T17:53:40.432Z,7.72
2023-04-20T17:56:07.036Z,9.52
2023-04-20T17:58:33.693Z,12.05
2023-04-20T18:01:00.332Z,6.90
2023-04-20T18:03:28.197Z,5.28
2023-04-20T18:05:54.990Z,8.97
2023-04-20T18:08:23.223Z,6.60
2023-04-20T18:10:49.999Z,6.43
2023-04-20T18:13:16.616Z,9.02
2023-04-20T18:15:43.209Z,8.75
2023-04-20T18:18:09.792Z,10.10
2023-04-20T18:20:36.389Z,9.00
2023-04-20T18:23:03.073Z,7.25
2023-04-20T18:25:29.664Z,7.70
2023-04-20T18:27:56.296Z,6.47
2023-04-20T18:30:23.027Z,7.95
2023-04-20T18:32:49.691Z,8.45
2023-04-20T18:35:16.454Z,5.72
2023-04-20T18:37:43.050Z,10.15
2023-04-20T18:40:10.018Z,15.48
2023-04-20T18:42:36.712Z,14.23
2023-04-20T18:45:03.896Z,12.02
2023-04-20T18:47:30.673Z,9.20
2023-04-20T18:49:57.321Z,12.57
2023-04-20T18:52:24.095Z,8.43
2023-04-20T18:54:51.803Z,10.95
2023-04-20T18:57:18.557Z,10.38
2023-04-20T18:59:45.347Z,11.13
2023-04-20T19:02:13.584Z,12.02
2023-04-20T19:04:40.871Z,7.10
2023-04-20T19:07:07.488Z,10.88
2023-04-20T19:09:35.648Z,9.82
2023-04-20T19:12:02.480Z,13.57
2023-04-20T19:14:29.068Z,8.10
2023-04-20T19:16:55.738Z,7.78
2023-04-20T19:19:22.474Z,29.63
2023-04-20T19:21:49.219Z,17.33
2023-04-20T19:24:16.086Z,13.20
2023-04-20T19:26:42.962Z,7.32
2023-04-20T19:29:09.699Z,10.32
2023-04-20T19:31:40.320Z,6.32
2023-04-20T19:34:07.432Z,7.93
2023-04-20T19:36:34.659Z,8.20
2023-04-20T19:39:01.286Z,9.52
2023-04-20T19:41:28.390Z,18.65
2023-04-20T19:43:55.024Z,8.77
2023-04-20T19:46:21.962Z,12.85
2023-04-20T19:48:48.601Z,8.85
2023-04-20T19:51:15.196Z,6.95
2023-04-20T19:53:41.975Z,9.77
2023-04-20T19:56:08.704Z,8.18
2023-04-20T19:58:35.330Z,9.80
2023-04-20T20:01:02.145Z,11.85
2023-04-20T20:03:28.917Z,18.25
2023-04-20T20:05:55.762Z,11.45
2023-04-20T20:08:22.410Z,31.70
2023-04-20T20:10:49.029Z,65.13
2023-04-20T20:13:15.987Z,44.83
2023-04-20T20:15:42.828Z,9.15
2023-04-20T20:18:10.641Z,6.75
2023-04-20T20:20:37.849Z,8.10
2023-04-20T20:23:04.900Z,9.82
2023-04-20T20:25:32.844Z,11.70
2023-04-20T20:28:01.956Z,7.68
2023-04-20T20:30:28.611Z,11.57
2023-04-20T20:32:55.384Z,5.43
2023-04-20T20:35:22.633Z,6.32
2023-04-20T20:37:49.300Z,8.30
2023-04-20T20:40:15.871Z,8.82
2023-04-20T20:42:44.979Z,9.68
2023-04-20T20:45:12.741Z,13.15
2023-04-20T20:47:41.161Z,10.45
2023-04-20T20:50:08.879Z,7.45
2023-04-20T20:52:35.648Z,7.25
2023-04-20T20:55:02.315Z,7.68
2023-04-20T20:57:28.945Z,12.52
2023-04-20T20:59:55.667Z,11.48
2023-04-20T21:02:22.497Z,10.93
2023-04-20T21:04:49.176Z,14.52
2023-04-20T21:07:15.985Z,9.45
2023-04-20T21:09:42.786Z,9.73
2023-04-20T21:12:09.359Z,10.85
2023-04-20T21:14:37.238Z,9.65
2023-04-20T21:17:04.726Z,7.75
2023-04-20T21:19:31.867Z,11.00
2023-04-20T21:21:58.756Z,9.32
2023-04-20T21:24:25.378Z,9.77
2023-04-20T21:26:52.608Z,55.35
2023-04-20T21:29:19.769Z,16.33
2023-04-20T21:31:46.745Z,13.65
2023-04-20T21:34:13.429Z,16.40
2023-04-20T21:36:39.999Z,8.35
2023-04-20T21:39:06.680Z,8.13
2023-04-20T21:41:33.318Z,8.90
2023-04-20T21:44:01.248Z,9.10
2023-04-20T21:46:28.125Z,13.23
2023-04-20T21:48:54.746Z,15.85
2023-04-20T21:51:21.340Z,9.73
2023-04-20T21:53:48.131Z,9.75
2023-04-20T21:56:15.044Z,9.45
2023-04-20T21:58:41.743Z,11.98
2023-04-20T22:01:08.666Z,7.13
2023-04-20T22:03:37.216Z,6.88
2023-04-20T22:06:06.455Z,12.25
2023-04-20T22:08:33.256Z,14.93
2023-04-20T22:10:59.797Z,11.88
2023-04-20T22:13:26.509Z,11.30
2023-04-20T22:15:53.182Z,9.80
2023-04-20T22:18:19.843Z,48.08
2023-04-20T22:20:46.615Z,60.95
2023-04-20T22:23:13.218Z,51.05
2023-04-20T22:25:40.776Z,38.55
2023-04-20T22:28:07.476Z,16.42
2023-04-20T22:30:34.282Z,14.15
2023-04-20T22:33:01.457Z,12.95
2023-04-20T22:35:28.291Z,8.90
2023-04-20T22:37:55.097Z,5.25
2023-04-20T22:40:22.115Z,11.23
2023-04-20T22:42:48.730Z,7.32
2023-04-20T22:45:16.609Z,7.70
2023-04-20T22:47:43.284Z,7.32
2023-04-20T22:50:12.005Z,14.90
2023-04-20T22:52:39.351Z,8.32
2023-04-20T22:55:07.434Z,6.38
2023-04-20T22:57:34.057Z,7.83
2023-04-20T23:00:05.998Z,7.00
2023-04-20T23:02:32.778Z,6.07
2023-04-20T23:04:59.418Z,8.15
2023-04-20T23:07:26.152Z,10.57
2023-04-20T23:09:53.783Z,11.38
2023-04-20T23:12:20.776Z,8.30
2023-04-20T23:14:47.396Z,6.38
2023-04-20T23:17:14.002Z,5.70
2023-04-20T23:19:41.123Z,5.22
2023-04-20T23:22:09.128Z,7.78
2023-04-20T23:24:36.036Z,5.23
2023-04-20T23:27:02.834Z,8.98
2023-04-20T23:29:29.571Z,7.97
2023-04-20T23:31:56.196Z,7.72
2023-04-20T23:34:22.762Z,6.63
2023-04-20T23:36:50.581Z,8.20
2023-04-20T23:39:17.604Z,8.70
2023-04-20T23:41:44.774Z,6.38
2023-04-20T23:44:11.395Z,6.57
2023-04-20T23:46:38.059Z,7.13
2023-04-20T23:49:04.622Z,9.90
2023-04-20T23:51:31.587Z,9.48
2023-04-20T23:53:58.167Z,8.10
2023-04-20T23:56:24.859Z,5.13
2023-04-20T23:58:51.525Z,6.68
